createdAt,value
2018-08-28T00:02:14.201Z,15.30
2018-08-28T00:04:41.951Z,15.40
2018-08-28T00:07:09.733Z,15.40
2018-08-28T00:09:37.526Z,15.50
2018-08-28T00:12:05.251Z,15.50
2018-08-28T00:14:33.045Z,15.60
2018-08-28T00:17:00.859Z,15.60
2018-08-28T00:19:28.634Z,15.70
2018-08-28T00:22:09.866Z,15.60
2018-08-28T00:24:58.663Z,15.60
2018-08-28T00:27:26.753Z,15.70
2018-08-28T00:30:24.980Z,15.70
2018-08-28T00:32:52.777Z,15.70
2018-08-28T00:35:20.541Z,15.80
2018-08-28T00:37:48.349Z,15.70
2018-08-28T00:40:16.214Z,15.70
2018-08-28T00:42:44.991Z,15.70
2018-08-28T00:45:12.735Z,15.70
2018-08-28T00:47:41.565Z,15.80
2018-08-28T00:50:09.385Z,15.80
2018-08-28T00:52:37.146Z,15.80
2018-08-28T00:55:04.968Z,15.80
2018-08-28T00:57:32.702Z,15.80
2018-08-28T01:00:00.439Z,15.70
2018-08-28T01:02:28.204Z,15.60
2018-08-28T01:04:56.003Z,15.60
2018-08-28T01:07:24.796Z,15.60
2018-08-28T01:09:52.581Z,15.70
2018-08-28T01:12:20.399Z,15.70
2018-08-28T01:15:19.145Z,15.60
2018-08-28T01:18:11.088Z,15.60
2018-08-28T01:20:42.162Z,15.50
2018-08-28T01:29:11.443Z,15.50
2018-08-28T01:31:39.187Z,15.70
2018-08-28T01:34:06.968Z,15.60
2018-08-28T01:36:34.761Z,15.60
2018-08-28T01:39:02.667Z,15.50
2018-08-28T01:41:30.438Z,15.50
2018-08-28T01:43:58.216Z,15.40
2018-08-28T01:46:26.005Z,15.40
2018-08-28T01:48:53.777Z,15.50
2018-08-28T01:51:21.525Z,15.40
2018-08-28T01:53:49.368Z,15.40
2018-08-28T01:56:17.134Z,15.40
2018-08-28T01:58:44.905Z,15.30
2018-08-28T02:01:12.693Z,15.30
2018-08-28T02:03:40.462Z,15.40
2018-08-28T02:06:08.267Z,15.40
2018-08-28T02:08:36.028Z,15.40
2018-08-28T02:11:04.112Z,15.50
2018-08-28T02:13:45.255Z,15.40
2018-08-28T02:16:13.074Z,15.30
2018-08-28T02:18:40.872Z,15.30
2018-08-28T02:21:08.640Z,15.50
2018-08-28T02:23:36.404Z,15.50
2018-08-28T02:26:04.165Z,15.50
2018-08-28T02:28:31.948Z,15.50
2018-08-28T02:30:59.735Z,15.50
2018-08-28T02:33:27.520Z,15.40
2018-08-28T02:35:55.295Z,15.40
2018-08-28T02:38:23.099Z,15.50
2018-08-28T02:40:50.868Z,15.40
2018-08-28T02:43:18.664Z,15.40
2018-08-28T02:45:46.464Z,15.30
2018-08-28T02:48:14.210Z,15.30
2018-08-28T02:50:42.074Z,15.10
2018-08-28T02:53:09.834Z,15.00
2018-08-28T02:55:37.632Z,15.00
2018-08-28T02:58:05.416Z,14.90
2018-08-28T03:00:33.207Z,14.90
2018-08-28T03:03:00.975Z,14.80
2018-08-28T03:05:28.760Z,14.80
2018-08-28T03:07:56.526Z,14.80
2018-08-28T03:10:24.389Z,14.80
2018-08-28T03:12:52.181Z,14.80
2018-08-28T03:15:20.016Z,14.80
2018-08-28T03:18:22.180Z,14.80
2018-08-28T03:20:49.986Z,14.80
2018-08-28T03:23:17.769Z,14.70
2018-08-28T03:25:45.519Z,14.60
2018-08-28T03:28:14.278Z,14.50
2018-08-28T03:30:42.080Z,14.40
2018-08-28T03:33:10.880Z,14.20
2018-08-28T03:35:38.637Z,14.10
2018-08-28T03:38:06.435Z,14.10
2018-08-28T03:40:34.228Z,13.90
2018-08-28T03:43:02.020Z,13.80
2018-08-28T03:45:29.832Z,13.70
2018-08-28T03:47:58.620Z,13.70
2018-08-28T03:50:26.423Z,13.70
2018-08-28T03:52:54.213Z,13.60
2018-08-28T03:55:22.015Z,13.50
2018-08-28T03:57:49.795Z,13.40
2018-08-28T04:00:17.552Z,13.40
2018-08-28T04:02:45.305Z,13.40
2018-08-28T04:05:13.136Z,13.30
2018-08-28T04:07:40.886Z,13.10
2018-08-28T04:10:08.686Z,13.20
2018-08-28T04:12:36.524Z,13.30
2018-08-28T04:15:04.341Z,13.30
2018-08-28T04:17:36.928Z,13.20
2018-08-28T04:20:04.785Z,13.10
2018-08-28T04:22:32.565Z,13.10
2018-08-28T04:25:08.014Z,13.00
2018-08-28T04:30:45.812Z,13.10
2018-08-28T04:33:13.824Z,13.10
2018-08-28T04:35:41.767Z,13.10
2018-08-28T04:38:09.735Z,12.90
2018-08-28T04:40:37.622Z,12.80
2018-08-28T04:43:05.596Z,12.80
2018-08-28T04:45:33.480Z,12.80
2018-08-28T04:48:01.422Z,12.90
2018-08-28T04:50:29.277Z,12.90
2018-08-28T04:52:57.283Z,13.00
2018-08-28T04:55:25.179Z,13.00
2018-08-28T04:57:53.056Z,13.00
2018-08-28T05:00:20.966Z,13.00
2018-08-28T05:02:48.951Z,13.10
2018-08-28T05:05:16.833Z,13.10
2018-08-28T05:10:12.557Z,13.30
2018-08-28T05:12:40.456Z,13.40
2018-08-28T05:15:08.319Z,13.50
2018-08-28T05:17:36.219Z,13.70
2018-08-28T05:20:04.295Z,13.80
2018-08-28T05:22:32.271Z,13.90
2018-08-28T05:25:00.160Z,14.10
2018-08-28T05:27:28.162Z,14.20
2018-08-28T05:29:56.000Z,14.30
2018-08-28T05:32:23.849Z,14.50
2018-08-28T05:34:51.729Z,14.60
2018-08-28T05:37:19.539Z,14.80
2018-08-28T05:39:47.339Z,14.90
2018-08-28T05:42:15.183Z,15.00
2018-08-28T05:44:43.047Z,15.20
2018-08-28T05:47:10.857Z,15.30
2018-08-28T05:49:38.733Z,15.30
2018-08-28T05:52:06.547Z,15.30
2018-08-28T05:54:34.367Z,15.40
2018-08-28T05:57:03.175Z,15.40
2018-08-28T05:59:31.007Z,15.40
2018-08-28T06:01:58.829Z,15.50
2018-08-28T06:04:27.624Z,15.60
2018-08-28T06:06:55.440Z,15.60
2018-08-28T06:09:23.236Z,15.80
2018-08-28T06:11:51.026Z,15.90
2018-08-28T06:14:18.822Z,15.90
2018-08-28T06:16:46.864Z,16.00
2018-08-28T06:19:14.675Z,16.10
2018-08-28T06:21:42.483Z,16.30
2018-08-28T06:27:37.196Z,16.50
2018-08-28T06:30:05.179Z,16.60
2018-08-28T06:32:33.144Z,16.70
2018-08-28T06:35:01.026Z,16.80
2018-08-28T06:37:29.015Z,16.80
2018-08-28T06:39:56.915Z,16.80
2018-08-28T06:42:24.893Z,16.80
2018-08-28T06:44:52.781Z,16.90
2018-08-28T06:47:20.799Z,17.00
2018-08-28T06:49:48.694Z,17.00
2018-08-28T06:52:16.720Z,17.10
2018-08-28T06:54:44.602Z,17.10
2018-08-28T06:57:12.600Z,17.10
2018-08-28T06:59:40.542Z,17.10
2018-08-28T07:02:08.525Z,17.20
2018-08-28T07:04:36.433Z,17.30
2018-08-28T07:07:04.634Z,17.30
2018-08-28T07:09:32.576Z,17.50
2018-08-28T07:12:00.570Z,17.50
2018-08-28T07:14:28.502Z,17.50
2018-08-28T07:16:56.547Z,17.50
2018-08-28T07:19:24.467Z,17.50
2018-08-28T07:21:52.490Z,17.50
2018-08-28T07:24:20.594Z,17.50
2018-08-28T07:26:48.554Z,17.60
2018-08-28T07:29:16.437Z,17.60
2018-08-28T07:31:45.445Z,17.70
2018-08-28T07:34:13.436Z,17.80
2018-08-28T07:36:43.986Z,17.80
2018-08-28T07:39:11.807Z,18.00
2018-08-28T07:41:39.624Z,18.10
2018-08-28T07:44:07.516Z,18.10
2018-08-28T07:46:35.349Z,18.20
2018-08-28T07:49:03.201Z,18.20
2018-08-28T07:51:31.113Z,18.30
2018-08-28T07:53:59.350Z,18.40
2018-08-28T07:56:28.184Z,18.40
2018-08-28T07:58:56.090Z,18.40
2018-08-28T08:01:25.844Z,18.50
2018-08-28T08:03:53.671Z,18.60
2018-08-28T08:06:22.651Z,18.70
2018-08-28T08:08:52.538Z,18.90
2018-08-28T08:11:20.603Z,18.90
2018-08-28T08:13:48.884Z,19.10
2018-08-28T08:16:18.140Z,19.30
2018-08-28T08:18:47.796Z,19.30
2018-08-28T08:21:16.714Z,19.50
2018-08-28T08:23:45.216Z,19.70
2018-08-28T08:26:13.061Z,19.90
2018-08-28T08:28:41.473Z,20.00
2018-08-28T08:31:09.305Z,19.90
2018-08-28T08:33:37.126Z,19.90
2018-08-28T08:36:05.783Z,20.00
2018-08-28T08:38:33.604Z,20.00
2018-08-28T08:41:01.485Z,20.00
2018-08-28T08:43:29.458Z,20.20
2018-08-28T08:45:57.845Z,20.40
2018-08-28T08:48:25.693Z,20.50
2018-08-28T08:50:53.730Z,20.60
2018-08-28T08:53:22.527Z,20.90
2018-08-28T08:55:50.341Z,21.00
2018-08-28T08:58:18.177Z,21.30
2018-08-28T09:00:46.048Z,21.40
2018-08-28T09:03:14.065Z,21.40
2018-08-28T09:05:41.955Z,21.40
2018-08-28T09:08:10.812Z,21.20
2018-08-28T09:10:39.680Z,21.20
2018-08-28T09:13:07.512Z,20.90
2018-08-28T09:15:36.012Z,21.00
2018-08-28T09:18:04.161Z,21.10
2018-08-28T09:20:32.049Z,21.30
2018-08-28T09:23:00.296Z,21.40
2018-08-28T09:25:28.367Z,21.50
2018-08-28T09:27:56.723Z,21.60
2018-08-28T09:30:24.552Z,21.60
2018-08-28T09:32:52.353Z,21.60
2018-08-28T09:35:20.472Z,21.80
2018-08-28T09:37:48.496Z,21.70
2018-08-28T09:40:17.341Z,21.60
2018-08-28T09:42:46.260Z,21.50
2018-08-28T09:45:14.495Z,21.60
2018-08-28T09:47:42.998Z,21.70
2018-08-28T09:50:10.829Z,21.60
2018-08-28T09:52:40.278Z,21.70
2018-08-28T09:55:08.297Z,21.50
2018-08-28T09:57:36.264Z,21.40
2018-08-28T10:00:04.260Z,21.50
2018-08-28T10:02:32.194Z,21.70
2018-08-28T10:05:01.591Z,21.50
2018-08-28T10:07:29.426Z,21.60
2018-08-28T10:09:58.887Z,21.90
2018-08-28T10:12:27.516Z,22.00
2018-08-28T10:14:56.187Z,22.30
2018-08-28T10:17:24.342Z,22.30
2018-08-28T10:19:52.689Z,22.30
2018-08-28T10:22:28.140Z,22.40
2018-08-28T10:24:56.375Z,22.50
2018-08-28T10:27:25.480Z,22.30
2018-08-28T10:29:55.556Z,22.10
2018-08-28T10:32:24.347Z,21.90
2018-08-28T10:34:52.140Z,21.70
2018-08-28T10:37:19.936Z,21.60
2018-08-28T10:39:48.771Z,21.40
2018-08-28T10:42:16.573Z,21.40
2018-08-28T10:44:45.322Z,21.60
2018-08-28T10:47:13.084Z,21.50
2018-08-28T10:49:41.163Z,21.50
2018-08-28T10:52:09.155Z,21.50
2018-08-28T10:54:37.089Z,21.60
2018-08-28T10:57:06.102Z,21.90
2018-08-28T10:59:33.924Z,22.10
2018-08-28T11:02:02.877Z,22.20
2018-08-28T11:04:30.737Z,22.60
2018-08-28T11:06:58.532Z,22.90
2018-08-28T11:09:26.373Z,22.90
2018-08-28T11:11:54.201Z,22.80
2018-08-28T11:14:21.963Z,22.80
2018-08-28T11:16:49.755Z,22.70
2018-08-28T11:19:17.595Z,22.50
2018-08-28T11:21:45.479Z,22.40
2018-08-28T11:24:13.280Z,22.60
2018-08-28T11:26:41.102Z,22.60
2018-08-28T11:29:08.939Z,22.50
2018-08-28T11:31:36.743Z,22.60
2018-08-28T11:34:04.660Z,22.70
2018-08-28T11:36:32.466Z,22.70
2018-08-28T11:39:00.267Z,22.60
2018-08-28T11:41:28.078Z,22.60
2018-08-28T11:43:55.925Z,22.40
2018-08-28T11:46:23.746Z,21.90
2018-08-28T11:48:51.594Z,22.10
2018-08-28T11:51:19.374Z,22.40
2018-08-28T11:53:47.251Z,22.70
2018-08-28T11:56:15.117Z,22.80
2018-08-28T11:58:42.938Z,22.80
2018-08-28T12:01:10.778Z,22.90
2018-08-28T12:03:38.623Z,23.00
2018-08-28T12:06:06.466Z,23.20
2018-08-28T12:08:34.262Z,23.60
2018-08-28T12:11:24.700Z,23.60
2018-08-28T12:13:52.722Z,23.60
2018-08-28T12:16:20.672Z,23.20
2018-08-28T12:18:48.579Z,23.10
2018-08-28T12:21:16.626Z,23.10
2018-08-28T12:23:44.569Z,23.50
2018-08-28T12:26:12.521Z,23.60
2018-08-28T12:28:40.456Z,23.20
2018-08-28T12:31:08.379Z,23.00
2018-08-28T12:33:36.296Z,22.90
2018-08-28T12:36:04.214Z,22.80
2018-08-28T12:38:32.154Z,22.10
2018-08-28T12:41:00.116Z,22.70
2018-08-28T12:43:28.018Z,23.40
2018-08-28T12:45:55.938Z,24.30
2018-08-28T12:48:23.858Z,24.60
2018-08-28T12:50:51.773Z,24.30
2018-08-28T12:53:19.749Z,23.50
2018-08-28T12:55:47.630Z,23.80
2018-08-28T12:58:15.552Z,23.40
2018-08-28T13:00:43.513Z,23.40
2018-08-28T13:03:11.489Z,23.60
2018-08-28T13:05:39.494Z,24.10
2018-08-28T13:08:07.398Z,24.30
2018-08-28T13:10:35.399Z,24.10
2018-08-28T13:15:50.497Z,23.50
2018-08-28T13:18:18.303Z,22.50
2018-08-28T13:20:47.132Z,23.10
2018-08-28T13:23:15.996Z,23.60
2018-08-28T13:25:43.830Z,23.50
2018-08-28T13:28:12.117Z,23.70
2018-08-28T13:33:40.644Z,23.90
2018-08-28T13:40:23.377Z,24.00
2018-08-28T13:42:51.137Z,23.90
2018-08-28T13:45:18.959Z,23.70
2018-08-28T13:47:46.738Z,23.50
2018-08-28T13:50:14.601Z,23.60
2018-08-28T13:52:42.365Z,23.70
2018-08-28T13:55:13.803Z,23.80
2018-08-28T13:57:41.711Z,23.80
2018-08-28T14:00:09.738Z,23.80
2018-08-28T14:02:37.516Z,24.00
2018-08-28T14:05:05.443Z,23.90
2018-08-28T14:07:33.265Z,23.80
2018-08-28T14:10:01.175Z,23.50
2018-08-28T14:12:29.145Z,23.50
2018-08-28T14:14:58.036Z,23.40
2018-08-28T14:17:25.939Z,23.40
2018-08-28T14:19:54.238Z,23.40
2018-08-28T14:22:22.261Z,23.30
2018-08-28T14:24:49.998Z,23.30
2018-08-28T14:27:17.896Z,23.60
2018-08-28T14:29:45.694Z,23.90
2018-08-28T14:32:14.939Z,23.90
2018-08-28T14:34:42.770Z,23.90
2018-08-28T14:37:10.721Z,24.00
2018-08-28T14:39:38.601Z,24.00
2018-08-28T14:42:06.404Z,23.90
2018-08-28T14:44:34.305Z,23.90
2018-08-28T14:47:02.153Z,24.00
2018-08-28T14:49:30.214Z,23.90
2018-08-28T14:51:58.051Z,23.80
2018-08-28T14:54:25.854Z,23.90
2018-08-28T14:56:53.631Z,23.90
2018-08-28T14:59:22.597Z,23.90
2018-08-28T15:01:50.439Z,23.90
2018-08-28T15:04:18.359Z,24.00
2018-08-28T15:06:46.239Z,23.90
2018-08-28T15:09:14.095Z,24.10
2018-08-28T15:11:41.960Z,24.20
2018-08-28T15:14:10.747Z,24.20
2018-08-28T15:16:38.884Z,24.30
2018-08-28T15:19:06.662Z,24.30
2018-08-28T15:21:35.673Z,24.20
2018-08-28T15:24:03.475Z,24.10
2018-08-28T15:26:31.302Z,24.80
2018-08-28T15:28:59.104Z,25.40
2018-08-28T15:31:26.942Z,25.10
2018-08-28T15:33:54.703Z,24.30
2018-08-28T15:36:22.746Z,24.20
2018-08-28T15:38:50.612Z,24.60
2018-08-28T15:41:18.371Z,25.00
2018-08-28T15:43:46.165Z,25.10
2018-08-28T15:46:14.153Z,24.90
2018-08-28T15:48:41.943Z,24.90
2018-08-28T15:51:09.891Z,24.90
2018-08-28T15:53:38.702Z,25.00
2018-08-28T15:56:06.669Z,25.50
2018-08-28T15:58:34.473Z,25.60
2018-08-28T16:01:02.344Z,25.40
2018-08-28T16:03:30.285Z,25.00
2018-08-28T16:05:58.271Z,24.90
2018-08-28T16:08:26.099Z,25.10
2018-08-28T16:10:55.614Z,25.30
2018-08-28T16:13:23.569Z,25.20
2018-08-28T16:15:51.414Z,24.30
2018-08-28T16:18:20.392Z,23.70
2018-08-28T16:20:48.235Z,23.10
2018-08-28T16:23:21.749Z,22.50
2018-08-28T16:25:49.619Z,22.10
2018-08-28T16:28:17.657Z,21.40
2018-08-28T16:30:45.464Z,21.60
2018-08-28T16:33:13.308Z,21.60
2018-08-28T16:35:41.122Z,21.30
2018-08-28T16:38:09.049Z,21.20
2018-08-28T16:40:36.896Z,21.40
2018-08-28T16:43:04.703Z,21.60
2018-08-28T16:45:33.680Z,21.70
2018-08-28T16:48:01.453Z,21.20
2018-08-28T16:50:29.349Z,20.90
2018-08-28T16:52:57.154Z,21.10
2018-08-28T16:55:24.941Z,21.30
2018-08-28T16:57:52.764Z,21.40
2018-08-28T17:00:20.748Z,21.30
2018-08-28T17:02:48.551Z,20.90
2018-08-28T17:05:17.553Z,20.50
2018-08-28T17:07:45.428Z,20.20
2018-08-28T17:10:13.249Z,20.10
2018-08-28T17:12:42.261Z,20.10
2018-08-28T17:15:10.263Z,20.00
2018-08-28T17:17:38.111Z,19.90
2018-08-28T17:20:05.983Z,19.80
2018-08-28T17:22:34.008Z,19.70
2018-08-28T17:25:01.802Z,19.60
2018-08-28T17:27:29.773Z,19.50
2018-08-28T17:29:57.595Z,19.50
2018-08-28T17:32:25.563Z,19.40
2018-08-28T17:34:53.448Z,19.30
2018-08-28T17:37:23.118Z,19.20
2018-08-28T17:39:50.875Z,19.20
2018-08-28T17:42:18.707Z,19.10
2018-08-28T17:44:46.728Z,19.00
2018-08-28T17:47:14.560Z,18.90
2018-08-28T17:49:44.339Z,18.80
2018-08-28T17:52:12.185Z,18.70
2018-08-28T17:54:40.226Z,18.70
2018-08-28T17:57:08.172Z,18.60
2018-08-28T17:59:36.931Z,18.60
2018-08-28T18:02:04.917Z,18.50
2018-08-28T18:04:32.815Z,18.40
2018-08-28T18:07:00.640Z,18.30
2018-08-28T18:09:29.557Z,18.10
2018-08-28T18:11:57.373Z,18.00
2018-08-28T18:14:33.476Z,17.90
2018-08-28T18:17:01.302Z,17.80
2018-08-28T18:19:29.313Z,17.70
2018-08-28T18:24:38.573Z,17.40
2018-08-28T18:27:36.516Z,17.10
2018-08-28T18:30:04.875Z,17.00
2018-08-28T18:32:32.701Z,16.80
2018-08-28T18:35:00.629Z,16.50
2018-08-28T18:37:28.451Z,16.30
2018-08-28T18:39:56.425Z,16.10
2018-08-28T18:42:24.225Z,15.90
2018-08-28T18:44:52.166Z,15.60
2018-08-28T18:47:19.986Z,15.40
2018-08-28T18:49:48.023Z,15.10
2018-08-28T18:52:16.161Z,15.00
2018-08-28T18:54:44.444Z,14.90
2018-08-28T18:57:12.384Z,14.60
2018-08-28T18:59:40.510Z,14.50
2018-08-28T19:02:08.574Z,14.60
2018-08-28T19:04:36.705Z,14.60
2018-08-28T19:07:04.610Z,14.60
2018-08-28T19:09:32.462Z,14.50
2018-08-28T19:12:00.526Z,14.50
2018-08-28T19:14:28.416Z,14.50
2018-08-28T19:16:56.449Z,14.50
2018-08-28T19:19:24.277Z,14.40
2018-08-28T19:21:52.104Z,14.40
2018-08-28T19:24:19.925Z,14.30
2018-08-28T19:26:47.927Z,14.40
2018-08-28T19:29:15.747Z,14.40
2018-08-28T19:31:43.592Z,14.40
2018-08-28T19:34:11.407Z,14.30
2018-08-28T19:36:39.303Z,14.10
2018-08-28T19:39:08.261Z,13.80
2018-08-28T19:42:10.201Z,13.90
2018-08-28T19:44:38.128Z,14.10
2018-08-28T19:49:41.663Z,14.00
2018-08-28T19:52:09.563Z,13.90
2018-08-28T19:54:37.515Z,14.00
2018-08-28T19:57:05.588Z,13.90
2018-08-28T19:59:33.316Z,13.70
2018-08-28T20:02:02.165Z,13.50
2018-08-28T20:04:29.976Z,13.60
2018-08-28T20:06:58.796Z,13.50
2018-08-28T20:09:26.564Z,13.30
2018-08-28T20:11:54.375Z,13.30
2018-08-28T20:14:22.203Z,13.30
2018-08-28T20:16:50.095Z,13.30
2018-08-28T20:19:17.927Z,13.20
2018-08-28T20:21:45.730Z,13.20
2018-08-28T20:24:13.541Z,13.30
2018-08-28T20:26:41.436Z,13.40
2018-08-28T20:29:10.287Z,13.30
2018-08-28T20:31:38.087Z,13.30
2018-08-28T20:34:06.265Z,13.20
2018-08-28T20:36:34.067Z,13.20
2018-08-28T20:39:01.905Z,13.20
2018-08-28T20:41:30.498Z,13.20
2018-08-28T20:43:58.349Z,13.20
2018-08-28T20:46:26.192Z,13.10
2018-08-28T20:48:54.044Z,13.20
2018-08-28T20:51:21.860Z,13.00
2018-08-28T20:53:49.702Z,12.90
2018-08-28T20:56:17.512Z,12.80
2018-08-28T20:58:45.337Z,12.80
2018-08-28T21:01:13.144Z,12.80
2018-08-28T21:03:42.991Z,12.80
2018-08-28T21:06:10.857Z,12.80
2018-08-28T21:08:38.680Z,12.80
2018-08-28T21:11:07.535Z,12.70
2018-08-28T21:13:35.364Z,12.50
2018-08-28T21:16:03.265Z,12.60
2018-08-28T21:18:31.055Z,12.60
2018-08-28T21:20:58.816Z,12.60
2018-08-28T21:23:26.699Z,12.60
2018-08-28T21:25:54.493Z,12.60
2018-08-28T21:28:22.315Z,12.50
2018-08-28T21:30:50.119Z,12.50
2018-08-28T21:33:18.121Z,12.50
2018-08-28T21:35:46.200Z,12.60
2018-08-28T21:38:14.061Z,12.60
2018-08-28T21:40:42.041Z,12.60
2018-08-28T21:43:09.951Z,12.60
2018-08-28T21:45:37.899Z,12.60
2018-08-28T21:48:05.864Z,12.50
2018-08-28T21:50:33.985Z,12.40
2018-08-28T21:53:01.853Z,12.30
2018-08-28T21:55:29.861Z,12.30
2018-08-28T21:57:57.781Z,12.30
2018-08-28T22:00:25.702Z,12.30
2018-08-28T22:02:53.664Z,12.30
2018-08-28T22:05:27.136Z,12.30
2018-08-28T22:08:00.914Z,12.40
2018-08-28T22:10:29.437Z,12.40
2018-08-28T22:12:58.460Z,12.40
2018-08-28T22:15:26.434Z,12.40
2018-08-28T22:17:54.756Z,12.40
2018-08-28T22:20:22.687Z,12.40
2018-08-28T22:22:52.437Z,12.40
2018-08-28T22:25:20.497Z,12.40
2018-08-28T22:27:48.535Z,12.40
2018-08-28T22:30:16.524Z,12.40
2018-08-28T22:32:44.507Z,12.40
2018-08-28T22:35:12.412Z,12.40
2018-08-28T22:37:40.428Z,12.30
2018-08-28T22:40:10.059Z,12.30
2018-08-28T22:42:38.046Z,12.20
2018-08-28T22:45:05.921Z,12.30
2018-08-28T22:47:33.810Z,12.30
2018-08-28T22:50:01.662Z,12.40
2018-08-28T22:52:29.776Z,12.30
2018-08-28T22:54:57.625Z,12.30
2018-08-28T22:57:25.556Z,12.30
2018-08-28T22:59:53.483Z,12.20
2018-08-28T23:02:42.832Z,12.20
2018-08-28T23:05:11.461Z,12.20
2018-08-28T23:07:40.255Z,12.10
2018-08-28T23:10:09.987Z,12.00
2018-08-28T23:12:38.570Z,11.90
2018-08-28T23:15:07.273Z,12.00
2018-08-28T23:17:35.980Z,12.00
2018-08-28T23:20:04.979Z,11.80
2018-08-28T23:22:33.586Z,11.60
2018-08-28T23:25:45.292Z,11.60
2018-08-28T23:28:45.264Z,11.60
2018-08-28T23:31:13.117Z,11.50
2018-08-28T23:33:48.651Z,11.40
2018-08-28T23:39:06.386Z,11.30
2018-08-28T23:41:34.222Z,11.30
2018-08-28T23:44:02.289Z,11.50
2018-08-28T23:46:31.094Z,11.60
2018-08-28T23:48:58.915Z,11.60
2018-08-28T23:51:26.773Z,11.70
2018-08-28T23:53:54.614Z,11.80
2018-08-28T23:56:22.451Z,11.70
2018-08-28T23:58:50.328Z,11.60
